This is the latest recevied weather packets stored in our database for station/object OK3FM-14. If no packets are shown the sender has not sent any weather packets the latest 10 day(s).
| Time | Temp. | Humidity | Pressure | Rain* | Wind** | Luminosity | Snow |
|---|---|---|---|---|---|---|---|
| 1787736435 | 17.22° C | 71% | 1021 hPa | - | - | - | - |
| 1787735835 | 16.67° C | 74% | 1021.1 hPa | - | - | - | - |
| 1787735236 | 16.67° C | 72% | 1021 hPa | - | - | - | - |
| 1787734635 | 16.67° C | 74% | 1021 hPa | - | - | - | - |
| 1787734035 | 16.11° C | 75% | 1020.9 hPa | - | - | - | - |
| 1787733435 | 16.11° C | 76% | 1020.9 hPa | - | - | - | - |
| 1787732836 | 16.11° C | 76% | 1020.8 hPa | - | - | - | - |
| 1787732235 | 16.11° C | 76% | 1020.8 hPa | - | - | - | - |
| 1787731635 | 15.56° C | 78% | 1020.6 hPa | - | - | - | - |
| 1787731035 | 15° C | 79% | 1020.6 hPa | - | - | - | - |
| 1787730435 | 15.56° C | 78% | 1020.5 hPa | - | - | - | - |
| 1787729835 | 15° C | 80% | 1020.5 hPa | - | - | - | - |
| 1787729235 | 15° C | 82% | 1020.5 hPa | - | - | - | - |
| 1787728635 | 14.44° C | 84% | 1020.3 hPa | - | - | - | - |
| 1787728035 | 14.44° C | 84% | 1020.2 hPa | - | - | - | - |
| 1787727435 | 14.44° C | 83% | 1020.1 hPa | - | - | - | - |
| 1787726836 | 14.44° C | 83% | 1020.1 hPa | - | - | - | - |
| 1787726235 | 14.44° C | 85% | 1019.9 hPa | - | - | - | - |
| 1787725635 | 14.44° C | 86% | 1019.8 hPa | - | - | - | - |
| 1787725035 | 14.44° C | 85% | 1019.8 hPa | - | - | - | - |
| 1787724435 | 13.89° C | 89% | 1019.8 hPa | - | - | - | - |
| 1787723835 | 13.89° C | 90% | 1019.9 hPa | - | - | - | - |
| 1787723235 | 13.89° C | 90% | 1019.8 hPa | - | - | - | - |
| 1787722635 | 13.33° C | 90% | 1019.9 hPa | - | - | - | - |
| 1787722035 | 13.33° C | 91% | 1020 hPa | - | - | - | - |
* Rain since midnight (hover to see other rain measurements)
** Current wind speed in m/s (hover to see current wind gust speed)